Terminal Aerodrome Forecast
Issued by NWS Albany, NY

Home | Current Version | Previous Version | Text Only | Print | Product List | Glossary On
Versions: 1 2 3 4 5 6 7 8 9 10 11 12 13 14 15 16 17 18 19
000
FTUS41 KALY 300538
TAFALB
TAF
KALB 300538Z 3006/0106 18005KT P6SM VCSH OVC050
     FM301000 VRB03KT P6SM OVC035
     FM301600 04006KT P6SM SCT035 SCT250
     FM302300 VRB03KT P6SM BKN050 OVC200=

USA.gov is the U.S. government's official web portal to all federal, state and local government web resources and services.